Reedsville, Pennsylvania
Current Conditions -  °F | °C
As of 2:35 PM on Thursday 27 Nov 2014 (Local Time) from KUNV Reporting Station
Light Snow Light Snow  
Wind Chill: 27°   Ceiling: 800
Heat Index: 32°   Visibility: 1.5mi
Dew Point: 30°   Wind: 5mph
Humidity: 93%   Direction: 290°WNW
Pressure: 30.01"   Gusts: NA
Location:  40.66°N, 77.6°W
Report Text: KUNV 271935Z 29004KT 1 1/2SM -SN BR BKN008 BKN015 OVC019 00/M01 A3001
Loading
Personal Weather Stations






























Interactive Weather Map New forecast layout! Learn more

10-Day Weather Forecast

Advertisements
Track Severe Weather on mobile